sensor_id;sensor_type;location;lat;lon;timestamp;P1;durP1;ratioP1;P2;durP2;ratioP2
73428;SDS011;61643;49.564;17.412;2023-09-12T00:02:17;11.93;;;6.90;;
73428;SDS011;61643;49.564;17.412;2023-09-12T00:04:43;13.35;;;6.97;;
73428;SDS011;61643;49.564;17.412;2023-09-12T00:07:09;8.55;;;6.50;;
73428;SDS011;61643;49.564;17.412;2023-09-12T00:09:35;7.78;;;6.32;;
73428;SDS011;61643;49.564;17.412;2023-09-12T00:12:01;10.70;;;6.97;;
73428;SDS011;61643;49.564;17.412;2023-09-12T00:14:28;8.18;;;6.40;;
73428;SDS011;61643;49.564;17.412;2023-09-12T00:16:53;9.05;;;6.00;;
73428;SDS011;61643;49.564;17.412;2023-09-12T00:19:21;12.85;;;6.75;;
73428;SDS011;61643;49.564;17.412;2023-09-12T00:21:47;13.57;;;6.93;;
73428;SDS011;61643;49.564;17.412;2023-09-12T00:24:12;10.70;;;6.82;;
73428;SDS011;61643;49.564;17.412;2023-09-12T00:26:38;11.13;;;6.72;;
73428;SDS011;61643;49.564;17.412;2023-09-12T00:29:04;9.80;;;6.40;;
73428;SDS011;61643;49.564;17.412;2023-09-12T00:31:30;9.27;;;6.65;;
73428;SDS011;61643;49.564;17.412;2023-09-12T00:33:56;8.90;;;6.47;;
73428;SDS011;61643;49.564;17.412;2023-09-12T00:36:22;12.02;;;6.80;;
73428;SDS011;61643;49.564;17.412;2023-09-12T00:38:48;8.70;;;6.50;;
73428;SDS011;61643;49.564;17.412;2023-09-12T00:41:14;11.93;;;7.05;;
73428;SDS011;61643;49.564;17.412;2023-09-12T00:43:40;10.93;;;6.68;;
73428;SDS011;61643;49.564;17.412;2023-09-12T00:46:06;10.45;;;6.60;;
73428;SDS011;61643;49.564;17.412;2023-09-12T00:48:32;11.23;;;7.05;;
73428;SDS011;61643;49.564;17.412;2023-09-12T00:50:58;8.95;;;6.35;;
73428;SDS011;61643;49.564;17.412;2023-09-12T00:53:26;9.20;;;6.57;;
73428;SDS011;61643;49.564;17.412;2023-09-12T00:55:54;10.10;;;6.40;;
73428;SDS011;61643;49.564;17.412;2023-09-12T00:58:23;9.00;;;6.30;;
73428;SDS011;61643;49.564;17.412;2023-09-12T01:00:50;12.43;;;6.63;;
73428;SDS011;61643;49.564;17.412;2023-09-12T01:03:16;10.88;;;6.78;;
73428;SDS011;61643;49.564;17.412;2023-09-12T01:05:43;10.35;;;7.15;;
73428;SDS011;61643;49.564;17.412;2023-09-12T01:08:09;9.73;;;7.00;;
73428;SDS011;61643;49.564;17.412;2023-09-12T01:10:35;8.77;;;6.32;;
73428;SDS011;61643;49.564;17.412;2023-09-12T01:13:02;9.45;;;6.20;;
73428;SDS011;61643;49.564;17.412;2023-09-12T01:15:28;8.35;;;6.25;;
73428;SDS011;61643;49.564;17.412;2023-09-12T01:17:54;9.95;;;7.25;;
73428;SDS011;61643;49.564;17.412;2023-09-12T01:20:26;10.30;;;7.10;;
73428;SDS011;61643;49.564;17.412;2023-09-12T01:28:14;11.10;;;6.75;;
73428;SDS011;61643;49.564;17.412;2023-09-12T01:30:42;10.88;;;7.13;;
73428;SDS011;61643;49.564;17.412;2023-09-12T01:33:14;9.85;;;6.90;;
73428;SDS011;61643;49.564;17.412;2023-09-12T01:35:40;10.82;;;6.90;;
73428;SDS011;61643;49.564;17.412;2023-09-12T01:38:06;12.20;;;7.00;;
73428;SDS011;61643;49.564;17.412;2023-09-12T01:40:43;9.13;;;6.95;;
73428;SDS011;61643;49.564;17.412;2023-09-12T01:43:13;11.45;;;6.88;;
73428;SDS011;61643;49.564;17.412;2023-09-12T01:45:42;9.85;;;6.90;;
73428;SDS011;61643;49.564;17.412;2023-09-12T01:48:10;10.63;;;6.78;;
73428;SDS011;61643;49.564;17.412;2023-09-12T01:50:37;9.63;;;6.63;;
73428;SDS011;61643;49.564;17.412;2023-09-12T01:53:04;14.55;;;7.07;;
73428;SDS011;61643;49.564;17.412;2023-09-12T01:55:30;8.48;;;6.80;;
73428;SDS011;61643;49.564;17.412;2023-09-12T01:57:57;10.43;;;7.07;;
73428;SDS011;61643;49.564;17.412;2023-09-12T02:00:23;11.20;;;7.20;;
73428;SDS011;61643;49.564;17.412;2023-09-12T02:02:49;11.57;;;6.97;;
73428;SDS011;61643;49.564;17.412;2023-09-12T02:05:16;13.35;;;6.72;;
73428;SDS011;61643;49.564;17.412;2023-09-12T02:07:45;11.32;;;6.65;;
73428;SDS011;61643;49.564;17.412;2023-09-12T02:10:12;11.45;;;7.47;;
73428;SDS011;61643;49.564;17.412;2023-09-12T02:12:39;10.65;;;7.05;;
73428;SDS011;61643;49.564;17.412;2023-09-12T02:15:05;11.60;;;7.28;;
73428;SDS011;61643;49.564;17.412;2023-09-12T02:17:32;9.07;;;7.10;;
73428;SDS011;61643;49.564;17.412;2023-09-12T02:19:58;9.57;;;6.45;;
73428;SDS011;61643;49.564;17.412;2023-09-12T02:22:24;10.65;;;6.82;;
73428;SDS011;61643;49.564;17.412;2023-09-12T02:24:50;10.00;;;7.05;;
73428;SDS011;61643;49.564;17.412;2023-09-12T02:27:16;10.63;;;6.75;;
73428;SDS011;61643;49.564;17.412;2023-09-12T02:29:42;13.88;;;7.10;;
73428;SDS011;61643;49.564;17.412;2023-09-12T02:32:08;10.57;;;7.25;;
73428;SDS011;61643;49.564;17.412;2023-09-12T02:34:34;11.10;;;7.07;;
73428;SDS011;61643;49.564;17.412;2023-09-12T02:37:01;9.90;;;6.88;;
73428;SDS011;61643;49.564;17.412;2023-09-12T02:39:27;11.38;;;6.53;;
73428;SDS011;61643;49.564;17.412;2023-09-12T02:41:53;12.75;;;7.55;;
73428;SDS011;61643;49.564;17.412;2023-09-12T02:44:19;12.45;;;7.20;;
73428;SDS011;61643;49.564;17.412;2023-09-12T02:46:45;11.43;;;6.53;;
73428;SDS011;61643;49.564;17.412;2023-09-12T02:49:11;12.68;;;7.40;;
73428;SDS011;61643;49.564;17.412;2023-09-12T02:51:40;11.45;;;7.30;;
73428;SDS011;61643;49.564;17.412;2023-09-12T02:54:07;8.73;;;6.28;;
73428;SDS011;61643;49.564;17.412;2023-09-12T02:56:33;9.75;;;6.45;;
73428;SDS011;61643;49.564;17.412;2023-09-12T02:58:59;9.23;;;7.18;;
73428;SDS011;61643;49.564;17.412;2023-09-12T03:01:25;8.75;;;6.43;;
73428;SDS011;61643;49.564;17.412;2023-09-12T03:03:53;12.15;;;6.93;;
73428;SDS011;61643;49.564;17.412;2023-09-12T03:06:19;10.70;;;6.75;;
73428;SDS011;61643;49.564;17.412;2023-09-12T03:08:47;11.82;;;7.53;;
73428;SDS011;61643;49.564;17.412;2023-09-12T03:11:13;9.48;;;7.10;;
73428;SDS011;61643;49.564;17.412;2023-09-12T03:13:40;11.30;;;7.82;;
73428;SDS011;61643;49.564;17.412;2023-09-12T03:16:10;12.43;;;7.13;;
73428;SDS011;61643;49.564;17.412;2023-09-12T03:18:37;10.63;;;7.47;;
73428;SDS011;61643;49.564;17.412;2023-09-12T03:21:03;10.57;;;6.45;;
73428;SDS011;61643;49.564;17.412;2023-09-12T03:23:29;11.93;;;7.00;;
73428;SDS011;61643;49.564;17.412;2023-09-12T03:25:55;12.98;;;7.43;;
73428;SDS011;61643;49.564;17.412;2023-09-12T03:28:25;12.18;;;7.68;;
73428;SDS011;61643;49.564;17.412;2023-09-12T03:30:51;11.18;;;7.55;;
73428;SDS011;61643;49.564;17.412;2023-09-12T03:33:17;12.48;;;7.30;;
73428;SDS011;61643;49.564;17.412;2023-09-12T03:35:43;10.52;;;7.32;;
73428;SDS011;61643;49.564;17.412;2023-09-12T03:38:09;10.43;;;7.55;;
73428;SDS011;61643;49.564;17.412;2023-09-12T03:40:36;11.45;;;7.10;;
73428;SDS011;61643;49.564;17.412;2023-09-12T03:43:02;11.65;;;7.35;;
73428;SDS011;61643;49.564;17.412;2023-09-12T03:45:28;10.65;;;7.15;;
73428;SDS011;61643;49.564;17.412;2023-09-12T03:47:54;9.65;;;7.15;;
73428;SDS011;61643;49.564;17.412;2023-09-12T03:50:20;9.98;;;7.05;;
73428;SDS011;61643;49.564;17.412;2023-09-12T03:52:46;14.95;;;7.25;;
73428;SDS011;61643;49.564;17.412;2023-09-12T03:55:12;10.85;;;8.02;;
73428;SDS011;61643;49.564;17.412;2023-09-12T03:57:38;10.15;;;7.60;;
73428;SDS011;61643;49.564;17.412;2023-09-12T04:00:04;11.98;;;7.60;;
73428;SDS011;61643;49.564;17.412;2023-09-12T04:02:31;10.65;;;7.53;;
73428;SDS011;61643;49.564;17.412;2023-09-12T04:04:57;11.82;;;7.90;;
73428;SDS011;61643;49.564;17.412;2023-09-12T04:07:24;10.75;;;7.60;;
73428;SDS011;61643;49.564;17.412;2023-09-12T04:09:50;11.40;;;7.82;;
73428;SDS011;61643;49.564;17.412;2023-09-12T04:12:17;11.55;;;8.13;;
73428;SDS011;61643;49.564;17.412;2023-09-12T04:14:43;14.13;;;7.80;;
73428;SDS011;61643;49.564;17.412;2023-09-12T04:17:08;14.50;;;7.97;;
73428;SDS011;61643;49.564;17.412;2023-09-12T04:19:34;11.73;;;8.05;;
73428;SDS011;61643;49.564;17.412;2023-09-12T04:22:00;12.52;;;7.80;;
73428;SDS011;61643;49.564;17.412;2023-09-12T04:24:26;15.88;;;8.27;;
73428;SDS011;61643;49.564;17.412;2023-09-12T04:26:53;12.88;;;7.65;;
73428;SDS011;61643;49.564;17.412;2023-09-12T04:29:19;13.30;;;7.53;;
73428;SDS011;61643;49.564;17.412;2023-09-12T04:31:45;11.57;;;7.65;;
73428;SDS011;61643;49.564;17.412;2023-09-12T04:34:11;13.30;;;8.07;;
73428;SDS011;61643;49.564;17.412;2023-09-12T04:36:37;10.98;;;8.07;;
73428;SDS011;61643;49.564;17.412;2023-09-12T04:39:03;10.40;;;7.47;;
73428;SDS011;61643;49.564;17.412;2023-09-12T04:41:30;14.25;;;7.72;;
73428;SDS011;61643;49.564;17.412;2023-09-12T04:43:56;12.20;;;7.82;;
73428;SDS011;61643;49.564;17.412;2023-09-12T04:46:24;9.95;;;7.35;;
73428;SDS011;61643;49.564;17.412;2023-09-12T04:48:50;11.50;;;7.47;;
73428;SDS011;61643;49.564;17.412;2023-09-12T04:51:16;10.70;;;7.90;;
73428;SDS011;61643;49.564;17.412;2023-09-12T04:53:42;12.50;;;8.15;;
73428;SDS011;61643;49.564;17.412;2023-09-12T04:56:08;9.68;;;7.45;;
73428;SDS011;61643;49.564;17.412;2023-09-12T04:58:35;9.85;;;7.55;;
73428;SDS011;61643;49.564;17.412;2023-09-12T05:01:01;11.25;;;7.43;;
73428;SDS011;61643;49.564;17.412;2023-09-12T05:03:28;11.77;;;7.28;;
73428;SDS011;61643;49.564;17.412;2023-09-12T05:05:53;13.40;;;7.95;;
73428;SDS011;61643;49.564;17.412;2023-09-12T05:08:19;11.18;;;7.75;;
73428;SDS011;61643;49.564;17.412;2023-09-12T05:10:45;10.07;;;7.43;;
73428;SDS011;61643;49.564;17.412;2023-09-12T05:13:12;13.90;;;7.70;;
73428;SDS011;61643;49.564;17.412;2023-09-12T05:15:39;10.25;;;7.47;;
73428;SDS011;61643;49.564;17.412;2023-09-12T05:18:06;10.55;;;8.10;;
73428;SDS011;61643;49.564;17.412;2023-09-12T05:20:33;15.15;;;7.78;;
73428;SDS011;61643;49.564;17.412;2023-09-12T05:23:00;10.00;;;7.43;;
73428;SDS011;61643;49.564;17.412;2023-09-12T05:25:26;11.27;;;7.47;;
73428;SDS011;61643;49.564;17.412;2023-09-12T05:27:55;11.43;;;8.05;;
73428;SDS011;61643;49.564;17.412;2023-09-12T05:30:22;10.40;;;7.75;;
73428;SDS011;61643;49.564;17.412;2023-09-12T05:32:48;16.95;;;8.20;;
73428;SDS011;61643;49.564;17.412;2023-09-12T05:35:14;11.63;;;8.10;;
73428;SDS011;61643;49.564;17.412;2023-09-12T05:37:39;12.63;;;8.00;;
73428;SDS011;61643;49.564;17.412;2023-09-12T05:40:06;11.27;;;7.90;;
73428;SDS011;61643;49.564;17.412;2023-09-12T05:42:32;9.77;;;7.63;;
73428;SDS011;61643;49.564;17.412;2023-09-12T05:44:58;12.73;;;7.80;;
73428;SDS011;61643;49.564;17.412;2023-09-12T05:47:24;11.50;;;7.85;;
73428;SDS011;61643;49.564;17.412;2023-09-12T05:49:50;14.18;;;7.72;;
73428;SDS011;61643;49.564;17.412;2023-09-12T05:52:15;11.30;;;7.85;;
73428;SDS011;61643;49.564;17.412;2023-09-12T05:54:42;13.35;;;7.60;;
73428;SDS011;61643;49.564;17.412;2023-09-12T05:57:08;11.68;;;7.65;;
73428;SDS011;61643;49.564;17.412;2023-09-12T05:59:36;10.82;;;7.85;;
73428;SDS011;61643;49.564;17.412;2023-09-12T06:02:06;10.25;;;6.78;;
73428;SDS011;61643;49.564;17.412;2023-09-12T06:04:35;10.68;;;6.95;;
73428;SDS011;61643;49.564;17.412;2023-09-12T06:07:01;10.38;;;7.05;;
73428;SDS011;61643;49.564;17.412;2023-09-12T06:09:28;9.48;;;6.90;;
73428;SDS011;61643;49.564;17.412;2023-09-12T06:11:55;9.85;;;6.50;;
73428;SDS011;61643;49.564;17.412;2023-09-12T06:14:21;11.15;;;6.95;;
73428;SDS011;61643;49.564;17.412;2023-09-12T06:16:47;9.40;;;6.90;;
73428;SDS011;61643;49.564;17.412;2023-09-12T06:19:13;12.07;;;7.25;;
73428;SDS011;61643;49.564;17.412;2023-09-12T06:21:45;12.90;;;7.20;;
73428;SDS011;61643;49.564;17.412;2023-09-12T06:24:12;12.02;;;6.97;;
73428;SDS011;61643;49.564;17.412;2023-09-12T06:26:42;9.65;;;7.45;;
73428;SDS011;61643;49.564;17.412;2023-09-12T06:29:09;9.73;;;7.10;;
73428;SDS011;61643;49.564;17.412;2023-09-12T06:31:35;9.88;;;7.25;;
73428;SDS011;61643;49.564;17.412;2023-09-12T06:34:01;10.68;;;7.43;;
73428;SDS011;61643;49.564;17.412;2023-09-12T06:36:28;12.85;;;8.15;;
73428;SDS011;61643;49.564;17.412;2023-09-12T06:38:57;12.98;;;7.38;;
73428;SDS011;61643;49.564;17.412;2023-09-12T06:41:23;8.48;;;6.90;;
73428;SDS011;61643;49.564;17.412;2023-09-12T06:43:50;14.00;;;7.13;;
73428;SDS011;61643;49.564;17.412;2023-09-12T06:46:16;8.65;;;7.05;;
73428;SDS011;61643;49.564;17.412;2023-09-12T06:48:45;10.15;;;6.78;;
73428;SDS011;61643;49.564;17.412;2023-09-12T06:51:12;10.30;;;7.55;;
73428;SDS011;61643;49.564;17.412;2023-09-12T06:53:38;8.80;;;6.50;;
73428;SDS011;61643;49.564;17.412;2023-09-12T06:56:04;9.75;;;7.00;;
73428;SDS011;61643;49.564;17.412;2023-09-12T06:58:31;18.33;;;6.93;;
73428;SDS011;61643;49.564;17.412;2023-09-12T07:01:01;9.63;;;6.72;;
73428;SDS011;61643;49.564;17.412;2023-09-12T07:03:34;8.38;;;6.65;;
73428;SDS011;61643;49.564;17.412;2023-09-12T07:06:01;9.65;;;7.20;;
73428;SDS011;61643;49.564;17.412;2023-09-12T07:10:56;11.70;;;7.32;;
73428;SDS011;61643;49.564;17.412;2023-09-12T07:13:23;14.48;;;7.70;;
73428;SDS011;61643;49.564;17.412;2023-09-12T07:15:49;13.20;;;8.00;;
73428;SDS011;61643;49.564;17.412;2023-09-12T07:20:43;9.52;;;7.38;;
73428;SDS011;61643;49.564;17.412;2023-09-12T07:23:11;9.15;;;6.95;;
73428;SDS011;61643;49.564;17.412;2023-09-12T07:25:40;10.00;;;6.60;;
73428;SDS011;61643;49.564;17.412;2023-09-12T07:28:07;8.52;;;6.90;;
73428;SDS011;61643;49.564;17.412;2023-09-12T07:30:34;13.48;;;7.43;;
73428;SDS011;61643;49.564;17.412;2023-09-12T07:33:00;11.32;;;6.90;;
73428;SDS011;61643;49.564;17.412;2023-09-12T07:35:26;9.63;;;6.85;;
73428;SDS011;61643;49.564;17.412;2023-09-12T07:37:52;10.85;;;7.00;;
73428;SDS011;61643;49.564;17.412;2023-09-12T07:40:18;13.35;;;7.43;;
73428;SDS011;61643;49.564;17.412;2023-09-12T07:42:44;8.48;;;6.88;;
73428;SDS011;61643;49.564;17.412;2023-09-12T07:45:10;12.63;;;8.23;;
73428;SDS011;61643;49.564;17.412;2023-09-12T07:47:36;9.48;;;6.88;;
73428;SDS011;61643;49.564;17.412;2023-09-12T07:50:02;12.88;;;7.18;;
73428;SDS011;61643;49.564;17.412;2023-09-12T07:52:29;11.18;;;7.55;;
73428;SDS011;61643;49.564;17.412;2023-09-12T07:54:59;12.07;;;7.22;;
73428;SDS011;61643;49.564;17.412;2023-09-12T07:57:25;8.73;;;7.10;;
73428;SDS011;61643;49.564;17.412;2023-09-12T07:59:51;11.00;;;6.65;;
73428;SDS011;61643;49.564;17.412;2023-09-12T08:02:17;12.73;;;7.53;;
73428;SDS011;61643;49.564;17.412;2023-09-12T08:04:43;13.50;;;6.75;;
73428;SDS011;61643;49.564;17.412;2023-09-12T08:07:09;13.13;;;6.70;;
73428;SDS011;61643;49.564;17.412;2023-09-12T08:12:22;12.98;;;6.63;;
73428;SDS011;61643;49.564;17.412;2023-09-12T08:14:49;9.05;;;5.97;;
73428;SDS011;61643;49.564;17.412;2023-09-12T08:17:15;8.50;;;6.25;;
73428;SDS011;61643;49.564;17.412;2023-09-12T08:19:41;10.52;;;6.78;;
73428;SDS011;61643;49.564;17.412;2023-09-12T08:22:08;8.70;;;6.50;;
73428;SDS011;61643;49.564;17.412;2023-09-12T08:27:01;8.82;;;6.38;;
73428;SDS011;61643;49.564;17.412;2023-09-12T08:29:28;13.63;;;6.50;;
73428;SDS011;61643;49.564;17.412;2023-09-12T08:31:54;8.35;;;6.47;;
73428;SDS011;61643;49.564;17.412;2023-09-12T08:34:21;8.23;;;6.07;;
73428;SDS011;61643;49.564;17.412;2023-09-12T08:36:47;8.35;;;6.57;;
73428;SDS011;61643;49.564;17.412;2023-09-12T08:39:16;15.73;;;7.15;;
73428;SDS011;61643;49.564;17.412;2023-09-12T08:41:43;9.13;;;6.45;;
73428;SDS011;61643;49.564;17.412;2023-09-12T08:44:12;10.52;;;6.82;;
73428;SDS011;61643;49.564;17.412;2023-09-12T08:46:40;10.32;;;6.72;;
73428;SDS011;61643;49.564;17.412;2023-09-12T08:49:07;10.75;;;6.40;;
73428;SDS011;61643;49.564;17.412;2023-09-12T08:51:44;10.18;;;6.70;;
73428;SDS011;61643;49.564;17.412;2023-09-12T08:54:10;11.48;;;7.05;;
73428;SDS011;61643;49.564;17.412;2023-09-12T08:56:36;9.77;;;6.57;;
73428;SDS011;61643;49.564;17.412;2023-09-12T08:59:05;10.23;;;6.47;;
73428;SDS011;61643;49.564;17.412;2023-09-12T09:01:32;10.52;;;6.50;;
73428;SDS011;61643;49.564;17.412;2023-09-12T09:04:01;7.70;;;6.40;;
73428;SDS011;61643;49.564;17.412;2023-09-12T09:06:29;11.93;;;7.05;;
73428;SDS011;61643;49.564;17.412;2023-09-12T09:08:57;10.25;;;6.40;;
73428;SDS011;61643;49.564;17.412;2023-09-12T09:11:25;10.13;;;6.32;;
73428;SDS011;61643;49.564;17.412;2023-09-12T09:13:54;8.65;;;6.30;;
73428;SDS011;61643;49.564;17.412;2023-09-12T09:16:20;9.50;;;6.40;;
73428;SDS011;61643;49.564;17.412;2023-09-12T09:18:53;10.05;;;6.68;;
73428;SDS011;61643;49.564;17.412;2023-09-12T09:23:51;11.40;;;7.20;;
73428;SDS011;61643;49.564;17.412;2023-09-12T09:26:18;9.88;;;7.03;;
73428;SDS011;61643;49.564;17.412;2023-09-12T09:28:44;9.07;;;6.80;;
73428;SDS011;61643;49.564;17.412;2023-09-12T09:31:11;10.20;;;6.65;;
73428;SDS011;61643;49.564;17.412;2023-09-12T09:33:39;14.93;;;6.60;;
73428;SDS011;61643;49.564;17.412;2023-09-12T09:36:06;9.65;;;6.72;;
73428;SDS011;61643;49.564;17.412;2023-09-12T09:38:36;10.40;;;6.40;;
73428;SDS011;61643;49.564;17.412;2023-09-12T09:41:08;14.32;;;7.03;;
73428;SDS011;61643;49.564;17.412;2023-09-12T09:43:35;8.77;;;6.45;;
73428;SDS011;61643;49.564;17.412;2023-09-12T09:46:02;10.25;;;6.65;;
73428;SDS011;61643;49.564;17.412;2023-09-12T09:48:28;10.00;;;6.72;;
73428;SDS011;61643;49.564;17.412;2023-09-12T09:51:00;17.58;;;6.68;;
73428;SDS011;61643;49.564;17.412;2023-09-12T09:53:28;11.13;;;7.53;;
73428;SDS011;61643;49.564;17.412;2023-09-12T09:56:10;12.65;;;7.13;;
73428;SDS011;61643;49.564;17.412;2023-09-12T09:58:59;12.10;;;7.20;;
73428;SDS011;61643;49.564;17.412;2023-09-12T10:01:28;12.50;;;6.53;;
73428;SDS011;61643;49.564;17.412;2023-09-12T10:03:57;13.52;;;6.15;;
73428;SDS011;61643;49.564;17.412;2023-09-12T10:06:28;9.55;;;6.57;;
73428;SDS011;61643;49.564;17.412;2023-09-12T10:08:56;10.38;;;6.53;;
73428;SDS011;61643;49.564;17.412;2023-09-12T10:11:24;10.68;;;6.22;;
73428;SDS011;61643;49.564;17.412;2023-09-12T10:13:54;10.75;;;6.35;;
73428;SDS011;61643;49.564;17.412;2023-09-12T10:16:23;9.55;;;6.30;;
73428;SDS011;61643;49.564;17.412;2023-09-12T10:18:56;14.60;;;6.57;;
73428;SDS011;61643;49.564;17.412;2023-09-12T10:21:45;9.73;;;6.47;;
73428;SDS011;61643;49.564;17.412;2023-09-12T10:24:14;10.90;;;6.82;;
73428;SDS011;61643;49.564;17.412;2023-09-12T10:26:42;14.68;;;6.75;;
73428;SDS011;61643;49.564;17.412;2023-09-12T10:29:14;11.65;;;6.75;;
73428;SDS011;61643;49.564;17.412;2023-09-12T10:31:43;11.73;;;6.85;;
73428;SDS011;61643;49.564;17.412;2023-09-12T10:34:10;11.43;;;6.72;;
73428;SDS011;61643;49.564;17.412;2023-09-12T10:36:40;9.75;;;6.15;;
73428;SDS011;61643;49.564;17.412;2023-09-12T10:39:07;14.57;;;6.18;;
73428;SDS011;61643;49.564;17.412;2023-09-12T10:41:36;9.40;;;6.22;;
73428;SDS011;61643;49.564;17.412;2023-09-12T10:44:09;12.10;;;6.90;;
73428;SDS011;61643;49.564;17.412;2023-09-12T10:46:37;11.50;;;6.10;;
73428;SDS011;61643;49.564;17.412;2023-09-12T10:49:08;7.70;;;5.97;;
73428;SDS011;61643;49.564;17.412;2023-09-12T10:51:45;13.30;;;6.15;;
73428;SDS011;61643;49.564;17.412;2023-09-12T10:54:14;11.73;;;6.28;;
73428;SDS011;61643;49.564;17.412;2023-09-12T11:02:33;9.48;;;5.93;;
73428;SDS011;61643;49.564;17.412;2023-09-12T11:05:02;14.48;;;6.65;;
73428;SDS011;61643;49.564;17.412;2023-09-12T11:10:35;11.85;;;6.40;;
73428;SDS011;61643;49.564;17.412;2023-09-12T11:12:57;10.32;;;6.15;;
73428;SDS011;61643;49.564;17.412;2023-09-12T11:15:24;8.90;;;6.05;;
73428;SDS011;61643;49.564;17.412;2023-09-12T11:18:02;13.63;;;6.40;;
73428;SDS011;61643;49.564;17.412;2023-09-12T11:20:52;11.15;;;6.03;;
73428;SDS011;61643;49.564;17.412;2023-09-12T11:23:24;9.45;;;5.90;;
73428;SDS011;61643;49.564;17.412;2023-09-12T11:26:24;8.98;;;5.88;;
73428;SDS011;61643;49.564;17.412;2023-09-12T11:28:44;8.75;;;5.82;;
73428;SDS011;61643;49.564;17.412;2023-09-12T11:31:10;11.20;;;5.65;;
73428;SDS011;61643;49.564;17.412;2023-09-12T11:33:36;9.13;;;6.05;;
73428;SDS011;61643;49.564;17.412;2023-09-12T11:36:06;11.30;;;6.15;;
73428;SDS011;61643;49.564;17.412;2023-09-12T11:38:39;12.77;;;6.20;;
73428;SDS011;61643;49.564;17.412;2023-09-12T11:41:05;15.77;;;6.35;;
73428;SDS011;61643;49.564;17.412;2023-09-12T11:43:31;10.15;;;6.30;;
73428;SDS011;61643;49.564;17.412;2023-09-12T11:45:58;12.13;;;6.38;;
73428;SDS011;61643;49.564;17.412;2023-09-12T11:48:24;12.07;;;6.57;;
73428;SDS011;61643;49.564;17.412;2023-09-12T11:50:54;13.20;;;6.13;;
73428;SDS011;61643;49.564;17.412;2023-09-12T11:53:22;11.63;;;6.43;;
73428;SDS011;61643;49.564;17.412;2023-09-12T11:55:58;14.30;;;6.80;;
73428;SDS011;61643;49.564;17.412;2023-09-12T11:58:25;13.85;;;7.05;;
73428;SDS011;61643;49.564;17.412;2023-09-12T12:00:56;8.98;;;6.72;;
73428;SDS011;61643;49.564;17.412;2023-09-12T12:03:23;11.02;;;6.32;;
73428;SDS011;61643;49.564;17.412;2023-09-12T12:05:51;10.75;;;7.00;;
73428;SDS011;61643;49.564;17.412;2023-09-12T12:08:19;7.95;;;6.43;;
73428;SDS011;61643;49.564;17.412;2023-09-12T12:10:51;13.20;;;6.32;;
73428;SDS011;61643;49.564;17.412;2023-09-12T12:13:19;12.13;;;6.28;;
73428;SDS011;61643;49.564;17.412;2023-09-12T12:15:46;11.73;;;6.25;;
73428;SDS011;61643;49.564;17.412;2023-09-12T12:18:12;11.43;;;6.32;;
73428;SDS011;61643;49.564;17.412;2023-09-12T12:20:38;10.80;;;7.40;;
73428;SDS011;61643;49.564;17.412;2023-09-12T12:23:04;12.13;;;6.55;;
73428;SDS011;61643;49.564;17.412;2023-09-12T12:25:33;11.02;;;7.22;;
73428;SDS011;61643;49.564;17.412;2023-09-12T12:28:00;8.98;;;6.90;;
73428;SDS011;61643;49.564;17.412;2023-09-12T12:30:29;14.73;;;6.93;;
73428;SDS011;61643;49.564;17.412;2023-09-12T12:32:57;9.07;;;6.63;;
73428;SDS011;61643;49.564;17.412;2023-09-12T12:35:26;11.40;;;6.65;;
73428;SDS011;61643;49.564;17.412;2023-09-12T12:37:53;8.93;;;6.63;;
73428;SDS011;61643;49.564;17.412;2023-09-12T12:40:21;11.68;;;6.97;;
73428;SDS011;61643;49.564;17.412;2023-09-12T12:42:47;14.43;;;7.13;;
73428;SDS011;61643;49.564;17.412;2023-09-12T12:45:14;11.30;;;6.97;;
73428;SDS011;61643;49.564;17.412;2023-09-12T12:47:41;13.00;;;7.22;;
73428;SDS011;61643;49.564;17.412;2023-09-12T12:50:10;13.20;;;6.70;;
73428;SDS011;61643;49.564;17.412;2023-09-12T12:52:37;14.60;;;7.35;;
73428;SDS011;61643;49.564;17.412;2023-09-12T12:55:08;11.35;;;7.15;;
73428;SDS011;61643;49.564;17.412;2023-09-12T12:57:37;9.23;;;7.10;;
73428;SDS011;61643;49.564;17.412;2023-09-12T13:00:11;12.63;;;6.90;;
73428;SDS011;61643;49.564;17.412;2023-09-12T13:02:42;10.73;;;6.85;;
73428;SDS011;61643;49.564;17.412;2023-09-12T13:05:19;12.13;;;6.65;;
73428;SDS011;61643;49.564;17.412;2023-09-12T13:07:46;12.15;;;6.68;;
73428;SDS011;61643;49.564;17.412;2023-09-12T13:10:12;12.65;;;7.60;;
73428;SDS011;61643;49.564;17.412;2023-09-12T13:12:38;10.27;;;6.80;;
73428;SDS011;61643;49.564;17.412;2023-09-12T13:15:04;10.80;;;7.07;;
73428;SDS011;61643;49.564;17.412;2023-09-12T13:17:30;11.32;;;6.88;;
73428;SDS011;61643;49.564;17.412;2023-09-12T13:19:56;10.23;;;6.65;;
73428;SDS011;61643;49.564;17.412;2023-09-12T13:22:23;9.98;;;7.03;;
73428;SDS011;61643;49.564;17.412;2023-09-12T13:24:49;8.18;;;7.00;;
73428;SDS011;61643;49.564;17.412;2023-09-12T13:27:15;11.68;;;7.10;;
73428;SDS011;61643;49.564;17.412;2023-09-12T13:29:41;11.75;;;6.97;;
73428;SDS011;61643;49.564;17.412;2023-09-12T13:32:06;14.85;;;7.22;;
73428;SDS011;61643;49.564;17.412;2023-09-12T13:34:32;10.05;;;7.72;;
73428;SDS011;61643;49.564;17.412;2023-09-12T13:36:58;14.65;;;7.03;;
73428;SDS011;61643;49.564;17.412;2023-09-12T13:39:24;7.65;;;6.32;;
73428;SDS011;61643;49.564;17.412;2023-09-12T13:41:50;11.55;;;7.28;;
73428;SDS011;61643;49.564;17.412;2023-09-12T13:44:17;10.35;;;6.78;;
73428;SDS011;61643;49.564;17.412;2023-09-12T13:46:43;12.02;;;6.80;;
73428;SDS011;61643;49.564;17.412;2023-09-12T13:49:13;9.68;;;7.32;;
73428;SDS011;61643;49.564;17.412;2023-09-12T13:51:38;14.63;;;7.85;;
73428;SDS011;61643;49.564;17.412;2023-09-12T13:54:04;12.45;;;7.00;;
73428;SDS011;61643;49.564;17.412;2023-09-12T13:58:58;13.43;;;6.53;;
73428;SDS011;61643;49.564;17.412;2023-09-12T14:01:23;11.23;;;6.70;;
73428;SDS011;61643;49.564;17.412;2023-09-12T14:03:49;11.27;;;6.80;;
73428;SDS011;61643;49.564;17.412;2023-09-12T14:06:15;9.18;;;6.75;;
73428;SDS011;61643;49.564;17.412;2023-09-12T14:08:41;9.38;;;6.57;;
73428;SDS011;61643;49.564;17.412;2023-09-12T14:11:07;8.98;;;6.70;;
73428;SDS011;61643;49.564;17.412;2023-09-12T14:13:33;12.10;;;6.68;;
73428;SDS011;61643;49.564;17.412;2023-09-12T14:15:59;9.55;;;7.20;;
73428;SDS011;61643;49.564;17.412;2023-09-12T14:18:25;12.98;;;7.05;;
73428;SDS011;61643;49.564;17.412;2023-09-12T14:20:51;10.38;;;6.57;;
73428;SDS011;61643;49.564;17.412;2023-09-12T14:23:17;11.48;;;6.97;;
73428;SDS011;61643;49.564;17.412;2023-09-12T14:25:43;10.93;;;6.70;;
73428;SDS011;61643;49.564;17.412;2023-09-12T14:28:09;13.95;;;6.47;;
73428;SDS011;61643;49.564;17.412;2023-09-12T14:30:36;10.30;;;6.22;;
73428;SDS011;61643;49.564;17.412;2023-09-12T14:33:03;13.45;;;6.53;;
73428;SDS011;61643;49.564;17.412;2023-09-12T14:35:29;18.85;;;7.28;;
73428;SDS011;61643;49.564;17.412;2023-09-12T14:37:55;14.85;;;6.88;;
73428;SDS011;61643;49.564;17.412;2023-09-12T14:40:21;12.43;;;6.13;;
73428;SDS011;61643;49.564;17.412;2023-09-12T14:45:14;15.25;;;6.80;;
73428;SDS011;61643;49.564;17.412;2023-09-12T14:47:41;9.23;;;6.50;;
73428;SDS011;61643;49.564;17.412;2023-09-12T14:50:07;9.55;;;6.60;;
73428;SDS011;61643;49.564;17.412;2023-09-12T14:52:34;8.73;;;6.13;;
73428;SDS011;61643;49.564;17.412;2023-09-12T14:55:00;18.63;;;6.95;;
73428;SDS011;61643;49.564;17.412;2023-09-12T14:57:26;12.75;;;5.85;;
73428;SDS011;61643;49.564;17.412;2023-09-12T14:59:53;20.00;;;7.18;;